Time;durP1;ratioP1;P1;durP2;ratioP2;P2;SDS_P1;SDS_P2;PMS_P1;PMS_P2;Temp;Humidity;BMP_temperature;BMP_pressure;BME280_temperature;BME280_humidity;BME280_pressure;Samples;Min_cycle;Max_cycle;Signal;HPM_P1;HPM_P2
2022/11/21 00:00:24;;;;;;;15.52;7.60;;;7.30;83.70;;;;;;4988410;28;20506;-60
2022/11/21 00:02:50;;;;;;;16.45;6.80;;;7.20;83.80;;;;;;5003582;28;20088;-65
2022/11/21 00:05:16;;;;;;;12.70;7.37;;;7.10;84.30;;;;;;4992951;28;20026;-59
2022/11/21 00:07:42;;;;;;;14.20;7.57;;;7.10;84.20;;;;;;4996167;28;20064;-63
2022/11/21 00:10:08;;;;;;;12.95;6.55;;;7.10;84.40;;;;;;4991923;28;20038;-58
2022/11/21 00:12:34;;;;;;;10.13;6.57;;;7.00;84.60;;;;;;4997031;28;20057;-63
2022/11/21 00:14:59;;;;;;;11.80;6.40;;;7.10;85.00;;;;;;4994427;28;20100;-57
2022/11/21 00:17:25;;;;;;;13.40;6.50;;;7.10;85.30;;;;;;4991488;28;20521;-61
2022/11/21 00:19:50;;;;;;;9.93;6.43;;;7.00;85.20;;;;;;4995117;28;20089;-57
2022/11/21 00:22:16;;;;;;;9.80;6.40;;;7.10;85.00;;;;;;4991858;28;20045;-59
2022/11/21 00:24:42;;;;;;;12.57;6.37;;;7.10;85.20;;;;;;4997653;28;20030;-58
2022/11/21 00:27:07;;;;;;;12.53;7.63;;;7.00;85.50;;;;;;4991615;28;20502;-59
2022/11/21 00:29:33;;;;;;;16.90;7.75;;;7.10;85.50;;;;;;4999625;28;20022;-56
2022/11/21 00:31:58;;;;;;;13.03;6.93;;;7.10;85.20;;;;;;4990092;28;20054;-58
2022/11/21 00:34:24;;;;;;;12.37;7.83;;;7.10;85.70;;;;;;4994514;28;20113;-60
2022/11/21 00:36:49;;;;;;;11.07;7.63;;;7.10;85.70;;;;;;4999649;28;20037;-58
2022/11/21 00:39:15;;;;;;;12.77;7.60;;;7.10;85.80;;;;;;4995288;28;20084;-57
2022/11/21 00:41:41;;;;;;;14.70;8.03;;;7.10;85.70;;;;;;4990353;28;20022;-55
2022/11/21 00:44:06;;;;;;;17.30;7.20;;;7.20;85.70;;;;;;4996161;28;20022;-59
2022/11/21 00:46:32;;;;;;;11.67;7.37;;;7.20;85.40;;;;;;4992131;28;20538;-64
2022/11/21 00:48:57;;;;;;;16.80;9.23;;;7.20;85.40;;;;;;4992299;28;20031;-59
2022/11/21 00:51:23;;;;;;;21.63;7.87;;;7.30;85.00;;;;;;4992621;28;20048;-62
2022/11/21 00:53:49;;;;;;;18.80;8.33;;;7.30;84.90;;;;;;4986174;28;20048;-58
2022/11/21 00:56:15;;;;;;;13.67;8.03;;;7.30;84.70;;;;;;4987169;28;20719;-58
2022/11/21 00:58:41;;;;;;;;;;;7.40;84.80;;;;;;4984481;28;20502;-59
2022/11/21 01:01:12;;;;;;;12.82;7.78;;;7.40;84.30;;;;;;4986063;28;19918;-63
2022/11/21 01:03:38;;;;;;;12.63;7.43;;;7.40;83.90;;;;;;4994333;28;20030;-59
2022/11/21 01:06:12;;;;;;;11.93;7.97;;;7.50;84.60;;;;;;4991393;28;20434;-61
2022/11/21 01:08:40;;;;;;;12.80;7.30;;;7.50;85.00;;;;;;4987779;28;20037;-60
2022/11/21 01:11:19;;;;;;;14.57;8.10;;;7.50;84.50;;;;;;4990471;28;20035;-62
2022/11/21 01:13:46;;;;;;;13.32;7.53;;;7.50;84.60;;;;;;4989412;28;20025;-60
2022/11/21 01:16:17;;;;;;;15.18;7.40;;;7.50;84.40;;;;;;4990578;28;20022;-60
2022/11/21 01:18:43;;;;;;;16.08;8.07;;;7.50;84.40;;;;;;4993556;28;20037;-58
2022/11/21 01:21:16;;;;;;;11.65;6.50;;;7.50;84.30;;;;;;4998773;28;20022;-64
2022/11/21 01:23:42;;;;;;;14.88;7.88;;;7.50;84.90;;;;;;4979896;28;20039;-59
2022/11/21 01:26:11;;;;;;;13.35;6.68;;;7.50;84.60;;;;;;4992630;28;20034;-62
2022/11/21 01:28:37;;;;;;;12.93;6.38;;;7.50;84.50;;;;;;4992430;28;20026;-61
2022/11/21 01:31:11;;;;;;;13.37;6.87;;;7.50;84.90;;;;;;4990017;28;20034;-57
2022/11/21 01:33:37;;;;;;;19.20;7.45;;;7.60;84.70;;;;;;4995988;28;20109;-58
2022/11/21 01:36:16;;;;;;;14.48;6.60;;;7.60;84.50;;;;;;4989129;28;20031;-64
2022/11/21 01:38:44;;;;;;;14.90;7.47;;;7.60;84.60;;;;;;4981058;28;20510;-59
2022/11/21 01:41:11;;;;;;;12.18;6.63;;;7.60;84.70;;;;;;4995233;28;20026;-63
2022/11/21 01:43:37;;;;;;;12.65;6.85;;;7.70;84.80;;;;;;4990609;28;20032;-62
2022/11/21 01:46:13;;;;;;;16.67;6.70;;;7.60;84.80;;;;;;4997070;28;20089;-61
2022/11/21 01:49:12;;;;;;;11.70;6.47;;;7.60;84.90;;;;;;4986186;28;20034;-63
2022/11/21 01:51:47;;;;;;;11.52;6.38;;;7.60;84.90;;;;;;4981184;28;20041;-56
2022/11/21 01:54:22;;;;;;;15.55;7.88;;;7.50;85.10;;;;;;4988626;28;20026;-62
2022/11/21 01:57:13;;;;;;;10.63;6.53;;;7.50;85.30;;;;;;4982629;28;20049;-59
2022/11/21 01:59:53;;;;;;;14.32;6.65;;;7.50;85.30;;;;;;4983732;28;20042;-56
2022/11/21 02:02:22;;;;;;;17.75;7.18;;;7.60;85.20;;;;;;4988401;28;20034;-56
2022/11/21 02:04:50;;;;;;;11.25;6.07;;;7.60;85.00;;;;;;4995125;28;20398;-57
2022/11/21 02:07:18;;;;;;;11.32;6.45;;;7.60;85.10;;;;;;4984342;28;20027;-55
2022/11/21 02:09:47;;;;;;;11.15;5.90;;;7.70;85.10;;;;;;4983554;28;20506;-59
2022/11/21 02:12:23;;;;;;;10.25;6.05;;;7.70;84.80;;;;;;4988815;28;20034;-56
2022/11/21 02:14:51;;;;;;;12.57;7.37;;;7.70;84.50;;;;;;4995809;28;20108;-58
2022/11/21 02:17:17;;;;;;;14.70;7.63;;;7.80;85.20;;;;;;4985847;28;20089;-57
2022/11/21 02:19:46;;;;;;;;;;;7.80;84.90;;;;;;4989208;28;20038;-56
2022/11/21 02:22:31;;;;;;;14.27;6.45;;;7.80;84.70;;;;;;4987137;28;19909;-58
2022/11/21 02:24:59;;;;;;;15.43;7.25;;;7.80;84.10;;;;;;4989129;28;20113;-56
2022/11/21 02:27:25;;;;;;;14.52;7.25;;;7.80;85.60;;;;;;4987844;28;20031;-57
2022/11/21 02:29:51;;;;;;;10.63;7.13;;;7.70;85.70;;;;;;4992836;28;20033;-58
2022/11/21 02:32:30;;;;;;;15.77;8.73;;;7.70;86.10;;;;;;4993453;28;20042;-56
2022/11/21 02:34:55;;;;;;;12.43;7.18;;;7.70;86.20;;;;;;4988690;28;20194;-56
2022/11/21 02:37:21;;;;;;;14.87;7.93;;;7.80;85.60;;;;;;4988508;28;20109;-56
2022/11/21 02:39:47;;;;;;;18.40;9.10;;;7.70;85.80;;;;;;4997149;28;20034;-56
2022/11/21 02:42:33;;;;;;;15.32;8.95;;;7.70;85.80;;;;;;4995177;28;20038;-55
2022/11/21 02:45:20;;;;;;;39.08;22.63;;;7.60;85.50;;;;;;4989683;28;20542;-57
2022/11/21 02:47:49;;;;;;;33.80;16.52;;;7.60;85.40;;;;;;4984566;28;20823;-55
2022/11/21 02:50:35;;;;;;;21.63;10.32;;;7.60;86.30;;;;;;4989028;28;20458;-55
2022/11/21 02:53:03;;;;;;;16.65;9.32;;;7.60;87.30;;;;;;4991914;28;20068;-56
2022/11/21 02:55:29;;;;;;;15.55;9.15;;;7.60;87.30;;;;;;4989897;28;20109;-57
2022/11/21 02:57:55;;;;;;;15.20;9.13;;;7.60;87.00;;;;;;4997527;28;20105;-56
2022/11/21 03:00:21;;;;;;;13.30;8.35;;;7.50;87.10;;;;;;4992523;28;20300;-59
2022/11/21 03:02:47;;;;;;;12.95;8.23;;;7.50;86.80;;;;;;4986958;28;20038;-58
2022/11/21 03:05:15;;;;;;;16.52;7.78;;;7.60;87.00;;;;;;4987614;28;20023;-65
2022/11/21 03:07:41;;;;;;;15.55;8.85;;;7.60;87.20;;;;;;4994196;28;20057;-57
2022/11/21 03:10:07;;;;;;;18.67;9.03;;;7.70;87.50;;;;;;4997944;28;20034;-55
2022/11/21 03:12:38;;;;;;;10.10;7.00;;;7.70;87.20;;;;;;4990343;28;20026;-58
2022/11/21 03:15:06;;;;;;;14.20;7.28;;;7.80;87.10;;;;;;4993098;28;20065;-58
2022/11/21 03:17:32;;;;;;;11.57;6.57;;;7.80;86.90;;;;;;4992671;28;20129;-61
2022/11/21 03:19:58;;;;;;;11.75;7.32;;;7.90;86.70;;;;;;4989130;28;20113;-58
2022/11/21 03:22:24;;;;;;;11.73;7.57;;;7.90;86.00;;;;;;4984814;28;20109;-56
2022/11/21 03:24:49;;;;;;;16.15;7.65;;;7.90;86.80;;;;;;4998176;28;20018;-60
2022/11/21 03:27:15;;;;;;;13.60;8.20;;;7.80;86.60;;;;;;4998194;28;20092;-57
2022/11/21 03:29:40;;;;;;;16.27;7.20;;;7.80;86.50;;;;;;4997934;28;20033;-56
2022/11/21 03:32:06;;;;;;;11.80;6.40;;;7.70;86.40;;;;;;5005168;28;20035;-55
2022/11/21 03:34:32;;;;;;;12.70;6.70;;;7.70;86.00;;;;;;4997459;28;20044;-59
2022/11/21 03:36:57;;;;;;;10.43;5.83;;;7.70;86.10;;;;;;4993526;28;20034;-56
2022/11/21 03:39:23;;;;;;;10.60;6.63;;;7.70;85.70;;;;;;4997671;28;20027;-57
2022/11/21 03:41:48;;;;;;;12.37;6.90;;;7.70;85.70;;;;;;4994321;28;20105;-56
2022/11/21 03:44:14;;;;;;;14.73;6.30;;;7.70;85.50;;;;;;4993486;28;20031;-56
2022/11/21 03:46:42;;;;;;;20.02;7.47;;;7.70;85.50;;;;;;5003658;28;20025;-58
2022/11/21 03:49:08;;;;;;;15.75;6.95;;;7.70;85.60;;;;;;4996073;28;20506;-58
2022/11/21 03:51:35;;;;;;;13.97;6.87;;;7.60;85.80;;;;;;4996054;28;20127;-56
2022/11/21 03:54:01;;;;;;;14.90;7.00;;;7.70;85.70;;;;;;4992136;28;20078;-56
2022/11/21 03:56:27;;;;;;;15.30;7.75;;;7.70;85.70;;;;;;4997863;28;20025;-62
2022/11/21 03:58:53;;;;;;;16.75;9.13;;;7.70;85.80;;;;;;4991405;28;20034;-56
2022/11/21 04:01:19;;;;;;;21.30;13.63;;;7.70;85.60;;;;;;4991601;28;20394;-55
2022/11/21 04:03:45;;;;;;;24.60;16.48;;;7.70;85.70;;;;;;4994682;28;20026;-55
2022/11/21 04:06:12;;;;;;;15.50;10.45;;;7.60;85.60;;;;;;4991426;28;20098;-59
2022/11/21 04:08:38;;;;;;;15.73;9.52;;;7.60;85.60;;;;;;4991541;28;20113;-57
2022/11/21 04:11:04;;;;;;;18.25;9.73;;;7.60;86.20;;;;;;4998005;28;20124;-57
2022/11/21 04:13:30;;;;;;;11.95;7.80;;;7.50;86.70;;;;;;4990641;28;20035;-58
2022/11/21 04:15:55;;;;;;;14.60;7.80;;;7.50;86.80;;;;;;4999209;28;20030;-56
2022/11/21 04:18:21;;;;;;;13.50;7.97;;;7.50;86.90;;;;;;4996037;28;20266;-57
2022/11/21 04:20:47;;;;;;;11.77;7.93;;;7.60;87.00;;;;;;4996117;28;20027;-56
2022/11/21 04:23:13;;;;;;;13.70;6.93;;;7.60;87.20;;;;;;5003497;28;20041;-58
2022/11/21 04:25:39;;;;;;;10.98;6.68;;;7.60;86.80;;;;;;4989809;28;20030;-56
2022/11/21 04:28:05;;;;;;;12.77;7.15;;;7.60;87.20;;;;;;4988161;28;20494;-57
2022/11/21 04:30:32;;;;;;;14.68;7.10;;;7.60;87.40;;;;;;5000870;28;20064;-55
2022/11/21 04:32:58;;;;;;;10.98;6.57;;;7.60;87.20;;;;;;4991961;28;20029;-56
2022/11/21 04:35:25;;;;;;;16.77;6.33;;;7.60;86.90;;;;;;5010529;28;20407;-58
2022/11/21 04:37:51;;;;;;;11.65;7.20;;;7.60;86.70;;;;;;4992740;28;20114;-57
2022/11/21 04:40:17;;;;;;;11.17;6.63;;;7.60;87.20;;;;;;4987847;28;20105;-58
2022/11/21 04:42:44;;;;;;;20.13;7.15;;;7.60;87.20;;;;;;4988080;28;20030;-56
2022/11/21 04:45:12;;;;;;;13.60;7.07;;;7.60;87.80;;;;;;4992460;28;20030;-57
2022/11/21 04:47:39;;;;;;;13.18;6.45;;;7.60;87.70;;;;;;4993870;28;20022;-57
2022/11/21 04:50:06;;;;;;;10.65;6.18;;;7.60;87.10;;;;;;4984467;28;20593;-56
2022/11/21 04:52:31;;;;;;;15.63;6.40;;;7.60;86.90;;;;;;4989958;28;20042;-56
2022/11/21 04:54:57;;;;;;;13.30;6.18;;;7.60;86.60;;;;;;4986357;28;20045;-56
2022/11/21 04:57:23;;;;;;;12.23;6.38;;;7.60;86.40;;;;;;4993317;28;20731;-56
2022/11/21 04:59:49;;;;;;;10.90;6.68;;;7.60;86.40;;;;;;4995698;28;20054;-57
2022/11/21 05:02:14;;;;;;;15.37;7.80;;;7.60;86.60;;;;;;4993587;28;20042;-56
2022/11/21 05:04:40;;;;;;;14.47;8.57;;;7.60;86.30;;;;;;4999010;28;20034;-60
2022/11/21 05:07:05;;;;;;;31.53;16.27;;;7.50;85.70;;;;;;4992296;28;20030;-56
2022/11/21 05:09:31;;;;;;;31.83;16.00;;;7.40;86.30;;;;;;4994618;28;20052;-57
2022/11/21 05:14:41;;;;;;;25.88;12.75;;;7.40;86.30;;;;;;4993025;28;20064;-56
2022/11/21 05:17:06;;;;;;;19.57;11.40;;;7.30;86.30;;;;;;4992918;28;20058;-64
2022/11/21 05:19:32;;;;;;;21.00;10.57;;;7.30;86.30;;;;;;4989367;28;20064;-61
2022/11/21 05:21:58;;;;;;;19.07;9.53;;;7.30;86.30;;;;;;4993886;28;20034;-59
2022/11/21 05:24:23;;;;;;;14.53;8.77;;;7.30;86.40;;;;;;4999470;28;20406;-64
2022/11/21 05:26:49;;;;;;;23.90;10.73;;;7.30;86.10;;;;;;4990679;28;20494;-64
2022/11/21 05:29:14;;;;;;;14.60;8.83;;;7.20;86.60;;;;;;4991746;28;20022;-56
2022/11/21 05:31:40;;;;;;;15.43;7.70;;;7.20;86.60;;;;;;4991229;28;20092;-57
2022/11/21 05:34:05;;;;;;;16.50;9.67;;;7.10;86.50;;;;;;4996852;28;20544;-57
2022/11/21 05:36:31;;;;;;;14.80;8.77;;;7.10;86.40;;;;;;4992648;28;20073;-56
2022/11/21 05:38:57;;;;;;;13.73;8.63;;;7.10;86.10;;;;;;4991137;28;20022;-56
2022/11/21 05:41:22;;;;;;;16.77;9.40;;;7.10;85.90;;;;;;4989021;28;20038;-55
2022/11/21 05:43:49;;;;;;;17.13;9.00;;;7.00;85.70;;;;;;4992948;28;20022;-57
2022/11/21 05:46:20;;;;;;;15.68;9.68;;;6.90;85.90;;;;;;4989079;28;20026;-59
2022/11/21 05:48:48;;;;;;;15.25;8.65;;;6.90;85.90;;;;;;5000608;28;20038;-58
2022/11/21 05:51:15;;;;;;;15.63;8.90;;;6.90;85.70;;;;;;4989525;28;20058;-64
2022/11/21 05:53:41;;;;;;;22.35;9.38;;;6.80;86.00;;;;;;4991306;28;20394;-60
2022/11/21 05:56:09;;;;;;;17.40;9.25;;;6.80;86.30;;;;;;4989739;28;20030;-60
2022/11/21 05:58:35;;;;;;;15.70;9.02;;;6.80;86.10;;;;;;4995368;28;20045;-59
2022/11/21 06:01:01;;;;;;;16.33;8.93;;;6.70;86.60;;;;;;4987529;28;20034;-61
2022/11/21 06:03:30;;;;;;;15.85;7.95;;;6.80;86.00;;;;;;4995900;28;20026;-56
2022/11/21 06:06:03;;;;;;;14.38;8.02;;;6.70;85.90;;;;;;4991726;28;20495;-61
2022/11/21 06:08:31;;;;;;;16.88;8.68;;;6.80;85.60;;;;;;4990448;28;20498;-60
2022/11/21 06:10:57;;;;;;;15.45;7.95;;;6.70;85.50;;;;;;4989309;28;20482;-57
2022/11/21 06:13:23;;;;;;;12.07;7.60;;;6.70;85.20;;;;;;4989203;28;20029;-57
2022/11/21 06:16:13;;;;;;;13.23;9.07;;;6.70;85.60;;;;;;4989014;28;20568;-59
2022/11/21 06:18:42;;;;;;;29.77;8.52;;;6.70;84.80;;;;;;4997558;28;20052;-61
2022/11/21 06:21:19;;;;;;;14.10;9.00;;;6.70;84.60;;;;;;4994549;28;20528;-56
2022/11/21 06:23:46;;;;;;;12.45;7.97;;;6.70;85.30;;;;;;4988140;28;20421;-54
2022/11/21 06:26:13;;;;;;;;;;;6.60;85.60;;;;;;4993504;28;20092;-59
2022/11/21 06:28:40;;;;;;;14.55;8.35;;;6.70;85.50;;;;;;4995811;28;20286;-59
2022/11/21 06:31:10;;;;;;;14.27;7.97;;;6.70;86.00;;;;;;4993311;28;20121;-57
2022/11/21 06:33:37;;;;;;;12.38;8.27;;;6.70;85.10;;;;;;4986679;28;20018;-56
2022/11/21 06:36:05;;;;;;;17.27;7.53;;;6.70;85.40;;;;;;4999723;28;20026;-59
2022/11/21 06:38:31;;;;;;;12.05;6.43;;;6.70;85.60;;;;;;4995679;28;20242;-58
2022/11/21 06:40:57;;;;;;;11.13;5.75;;;6.70;84.90;;;;;;4994898;28;20132;-56
2022/11/21 06:43:23;;;;;;;10.52;6.03;;;6.60;85.10;;;;;;4989251;28;20038;-59
2022/11/21 06:45:48;;;;;;;10.73;5.57;;;6.70;85.20;;;;;;4989876;28;20034;-58
2022/11/21 06:48:14;;;;;;;7.40;5.27;;;6.70;84.50;;;;;;4991084;28;20529;-56
2022/11/21 06:50:39;;;;;;;14.93;6.50;;;6.70;85.30;;;;;;5000395;28;20194;-54
2022/11/21 06:53:05;;;;;;;12.47;6.07;;;6.70;84.60;;;;;;4989197;28;20121;-58
2022/11/21 06:55:31;;;;;;;10.48;5.90;;;6.70;84.80;;;;;;4994036;28;20044;-57
2022/11/21 06:57:58;;;;;;;10.32;6.28;;;6.70;84.90;;;;;;4980867;28;20156;-56
2022/11/21 07:00:24;;;;;;;;;;;6.70;85.30;;;;;;4982910;28;20031;-58
2022/11/21 07:02:50;;;;;;;12.88;6.85;;;6.60;85.20;;;;;;4982093;28;20027;-58
2022/11/21 07:05:16;;;;;;;10.97;5.60;;;6.60;85.40;;;;;;4989564;28;20023;-57
2022/11/21 07:07:41;;;;;;;8.00;4.87;;;6.60;84.90;;;;;;4992523;28;20027;-61
2022/11/21 07:10:07;;;;;;;8.97;5.97;;;6.60;85.30;;;;;;4989133;28;20066;-58
2022/11/21 07:15:18;;;;;;;10.82;4.68;;;6.70;84.90;;;;;;4992609;28;20438;-57
2022/11/21 07:17:43;;;;;;;12.20;6.80;;;6.70;85.40;;;;;;4996259;28;20026;-57
2022/11/21 07:20:10;;;;;;;12.40;5.80;;;6.70;85.70;;;;;;4994233;28;20034;-56
2022/11/21 07:22:35;;;;;;;13.77;6.07;;;6.70;85.30;;;;;;4997179;28;20441;-56
2022/11/21 07:25:01;;;;;;;14.93;5.77;;;6.70;84.70;;;;;;4996171;28;20093;-58
2022/11/21 07:27:27;;;;;;;14.47;6.37;;;6.70;85.30;;;;;;4999134;28;20034;-56
2022/11/21 07:29:52;;;;;;;11.93;6.23;;;6.70;85.80;;;;;;4993249;28;20281;-56
2022/11/21 07:32:18;;;;;;;10.40;5.33;;;6.70;85.30;;;;;;4995527;28;20096;-55
2022/11/21 07:34:43;;;;;;;12.57;6.53;;;6.70;85.60;;;;;;4992287;28;20046;-56
2022/11/21 07:37:09;;;;;;;8.43;4.80;;;6.70;85.40;;;;;;4986847;28;20038;-57
2022/11/21 07:39:35;;;;;;;14.00;5.70;;;6.60;85.30;;;;;;4993860;28;20044;-60
2022/11/21 07:42:00;;;;;;;14.00;5.47;;;6.60;85.10;;;;;;4991431;28;20467;-57
2022/11/21 07:44:27;;;;;;;12.60;5.47;;;6.50;85.30;;;;;;4995316;28;20141;-57
2022/11/21 07:46:55;;;;;;;13.13;5.60;;;6.60;85.60;;;;;;4995800;28;20133;-59
2022/11/21 07:49:21;;;;;;;11.05;5.15;;;6.70;85.30;;;;;;4989875;28;20038;-59
2022/11/21 07:51:47;;;;;;;16.75;5.10;;;6.80;85.20;;;;;;4996743;28;20144;-58
2022/11/21 07:54:13;;;;;;;14.23;7.13;;;6.80;84.80;;;;;;4990065;28;20468;-58
2022/11/21 07:56:38;;;;;;;9.63;5.37;;;6.80;84.60;;;;;;5000630;28;20092;-58
2022/11/21 07:59:04;;;;;;;13.67;5.63;;;6.90;84.90;;;;;;4992258;28;20030;-49
2022/11/21 08:01:30;;;;;;;14.03;6.40;;;6.90;84.90;;;;;;5002611;28;20438;-53
2022/11/21 08:03:56;;;;;;;10.40;5.65;;;6.90;84.70;;;;;;4993055;28;20034;-55
2022/11/21 08:06:21;;;;;;;12.33;5.13;;;6.90;84.70;;;;;;4994084;28;20251;-54
2022/11/21 08:08:51;;;;;;;13.60;5.77;;;7.00;84.60;;;;;;4991117;28;20633;-55
2022/11/21 08:11:16;;;;;;;10.20;5.47;;;7.10;84.40;;;;;;4999245;28;20038;-57
2022/11/21 08:13:42;;;;;;;14.00;5.80;;;7.10;84.00;;;;;;4996012;28;20127;-58
2022/11/21 08:16:07;;;;;;;11.53;5.80;;;7.10;84.00;;;;;;4985942;28;20034;-58
2022/11/21 08:18:33;;;;;;;13.90;6.20;;;7.20;83.90;;;;;;4994361;28;20026;-57
2022/11/21 08:21:03;;;;;;;11.83;5.20;;;7.10;83.10;;;;;;4997210;28;20498;-56
2022/11/21 08:23:29;;;;;;;13.23;6.25;;;7.20;83.80;;;;;;4995845;28;20042;-56
2022/11/21 08:25:54;;;;;;;11.15;6.75;;;7.30;84.10;;;;;;4995456;28;20030;-55
2022/11/21 08:28:20;;;;;;;9.50;5.60;;;7.30;84.20;;;;;;4992322;28;20519;-53
2022/11/21 08:30:45;;;;;;;10.60;5.47;;;7.40;84.20;;;;;;4988620;28;20022;-56
2022/11/21 08:33:11;;;;;;;14.73;6.70;;;7.40;83.50;;;;;;4986179;28;20518;-59
2022/11/21 08:35:37;;;;;;;16.43;7.43;;;7.40;83.00;;;;;;4987582;28;20038;-58
2022/11/21 08:38:04;;;;;;;15.02;7.65;;;7.50;83.30;;;;;;4989797;28;20105;-54
2022/11/21 08:40:30;;;;;;;16.88;5.82;;;7.50;83.50;;;;;;4991583;28;20093;-55
2022/11/21 08:43:04;;;;;;;9.65;5.35;;;7.50;82.20;;;;;;4991206;28;20041;-59
2022/11/21 08:45:31;;;;;;;11.23;5.30;;;7.50;81.80;;;;;;4992079;28;20588;-57
2022/11/21 08:47:56;;;;;;;8.68;4.95;;;7.50;81.00;;;;;;4991462;28;20564;-55
2022/11/21 08:50:22;;;;;;;10.23;4.37;;;7.50;80.60;;;;;;4989103;28;20034;-60
2022/11/21 08:52:49;;;;;;;13.02;6.85;;;7.60;79.60;;;;;;4996389;28;20027;-57
2022/11/21 08:55:15;;;;;;;12.48;4.88;;;7.70;82.40;;;;;;4992405;28;20546;-56
2022/11/21 08:57:41;;;;;;;13.02;4.47;;;7.70;82.70;;;;;;4989159;28;20034;-56
2022/11/21 09:00:11;;;;;;;11.23;5.15;;;7.80;82.10;;;;;;4985233;28;20034;-57
2022/11/21 09:02:37;;;;;;;9.30;5.65;;;7.90;81.80;;;;;;4989874;28;20064;-61
2022/11/21 09:05:03;;;;;;;11.90;5.43;;;7.90;82.50;;;;;;4992211;28;20030;-58
2022/11/21 09:07:29;;;;;;;14.50;4.90;;;7.90;79.00;;;;;;4987351;28;20060;-53
2022/11/21 09:09:54;;;;;;;13.93;4.73;;;7.90;78.00;;;;;;4988687;28;20300;-57
2022/11/21 09:12:20;;;;;;;18.80;5.20;;;8.00;78.20;;;;;;4989738;28;20030;-53
2022/11/21 09:20:14;;;;;;;9.15;4.45;;;8.20;77.70;;;;;;4986153;28;20050;-56
2022/11/21 09:22:40;;;;;;;11.47;4.73;;;8.30;79.00;;;;;;4985538;28;20479;-58
2022/11/21 09:25:06;;;;;;;13.33;3.93;;;8.20;78.60;;;;;;4987984;28;20106;-61
2022/11/21 09:27:31;;;;;;;6.50;3.78;;;8.30;78.30;;;;;;4999152;28;20116;-55
2022/11/21 09:29:57;;;;;;;7.93;4.53;;;8.30;77.30;;;;;;4993558;28;20442;-62
2022/11/21 09:32:23;;;;;;;8.33;4.97;;;8.40;78.10;;;;;;4989490;28;20053;-61
2022/11/21 09:34:48;;;;;;;13.30;4.93;;;8.30;77.70;;;;;;4990071;28;20039;-60
2022/11/21 09:37:14;;;;;;;7.10;4.07;;;8.40;77.80;;;;;;4990473;28;20061;-58
2022/11/21 09:39:40;;;;;;;6.80;4.47;;;8.40;76.70;;;;;;4989611;28;20044;-57
2022/11/21 09:42:12;;;;;;;8.70;4.10;;;8.50;77.50;;;;;;4987136;28;20061;-55
2022/11/21 09:44:57;;;;;;;9.55;4.57;;;8.60;77.20;;;;;;4992629;28;20033;-60
2022/11/21 09:47:32;;;;;;;13.80;3.95;;;8.60;76.80;;;;;;4997957;28;20030;-55
2022/11/21 09:50:05;;;;;;;5.03;3.30;;;8.60;75.10;;;;;;4993200;28;20049;-55
2022/11/21 09:52:52;;;;;;;5.88;2.72;;;8.70;75.30;;;;;;4989438;28;20042;-54
2022/11/21 09:55:30;;;;;;;3.92;2.60;;;8.70;74.80;;;;;;4992699;28;20394;-54
2022/11/21 09:57:59;;;;;;;8.20;2.67;;;8.70;74.30;;;;;;4989371;28;20498;-55
2022/11/21 10:00:25;;;;;;;6.50;2.80;;;8.70;73.80;;;;;;4990994;28;20096;-54
2022/11/21 10:02:51;;;;;;;6.65;2.75;;;8.80;74.30;;;;;;4985486;28;20038;-52
2022/11/21 10:05:24;;;;;;;7.57;2.70;;;8.90;72.10;;;;;;4994087;28;20062;-58
2022/11/21 10:07:52;;;;;;;7.57;2.53;;;8.90;71.50;;;;;;4988607;28;20118;-56
2022/11/21 10:10:47;;;;;;;9.10;2.60;;;9.00;73.30;;;;;;4984572;28;20105;-60
2022/11/21 10:13:24;;;;;;;5.88;2.22;;;8.90;72.10;;;;;;4990151;28;20038;-62
2022/11/21 10:15:57;;;;;;;7.07;2.08;;;9.00;74.00;;;;;;4993980;28;20029;-55
2022/11/21 10:18:59;;;;;;;7.72;2.70;;;9.10;76.20;;;;;;4995414;28;20026;-56
2022/11/21 10:21:32;;;;;;;8.20;2.30;;;9.20;75.30;;;;;;4991483;28;20034;-60
2022/11/21 10:24:11;;;;;;;12.63;2.30;;;9.20;75.10;;;;;;4989044;28;20391;-61
2022/11/21 10:27:02;;;;;;;7.88;2.20;;;9.20;75.10;;;;;;4999513;28;20030;-59
2022/11/21 10:29:37;;;;;;;6.35;2.22;;;9.30;76.60;;;;;;4990219;28;20033;-58
2022/11/21 10:32:43;;;;;;;8.80;2.55;;;9.20;74.50;;;;;;4987158;28;20414;-55
2022/11/21 10:35:20;;;;;;;11.60;2.20;;;9.30;73.20;;;;;;4947484;28;20580;-59
2022/11/21 10:37:58;;;;;;;11.73;2.95;;;9.30;74.40;;;;;;4946876;28;20155;-62
2022/11/21 10:40:40;;;;;;;12.25;2.78;;;9.40;74.30;;;;;;4975900;28;20034;-62
2022/11/21 10:46:26;;;;;;;14.50;2.72;;;9.50;75.80;;;;;;4987752;28;20037;-61
2022/11/21 10:48:59;;;;;;;11.53;2.90;;;9.50;75.40;;;;;;4995594;28;20030;-63
2022/11/21 10:52:03;;;;;;;7.97;3.00;;;9.60;74.40;;;;;;4989244;28;20034;-58
2022/11/21 10:54:31;;;;;;;12.65;2.58;;;9.70;75.00;;;;;;4989617;28;20046;-59
2022/11/21 10:57:15;;;;;;;12.55;3.60;;;9.80;75.10;;;;;;4998922;28;20417;-61
2022/11/21 10:59:59;;;;;;;8.38;2.63;;;9.80;74.10;;;;;;4979862;28;20038;-61
2022/11/21 11:02:25;;;;;;;7.50;2.13;;;9.80;74.50;;;;;;4987738;28;20029;-62
2022/11/21 11:05:21;;;;;;;13.13;2.45;;;9.90;74.10;;;;;;4988638;28;20121;-53
2022/11/21 11:08:07;;;;;;;11.55;3.60;;;9.90;72.60;;;;;;4985010;28;20030;-57
2022/11/21 11:10:42;;;;;;;12.93;3.20;;;9.90;73.70;;;;;;4991305;28;20030;-63
2022/11/21 11:16:04;;;;;;;9.30;3.05;;;9.80;74.60;;;;;;4985428;28;20411;-64
2022/11/21 11:18:34;;;;;;;9.40;3.53;;;9.90;72.70;;;;;;5003319;28;20421;-61
2022/11/21 11:21:40;;;;;;;9.55;2.58;;;9.90;73.40;;;;;;4990019;28;20027;-61
2022/11/21 11:24:21;;;;;;;7.53;2.35;;;9.90;72.10;;;;;;4982884;28;20050;-64
2022/11/21 11:26:46;;;;;;;5.43;2.03;;;9.90;69.00;;;;;;4990760;28;20045;-57
2022/11/21 11:29:20;;;;;;;7.10;2.07;;;9.90;70.90;;;;;;4992576;28;20065;-56
2022/11/21 11:31:58;;;;;;;12.65;2.08;;;9.90;70.70;;;;;;4991272;28;20517;-60
2022/11/21 11:34:57;;;;;;;9.75;2.60;;;9.90;71.60;;;;;;4980969;28;21001;-57
2022/11/21 11:37:38;;;;;;;12.73;3.03;;;9.90;72.40;;;;;;4986004;28;20034;-57
2022/11/21 11:40:22;;;;;;;10.15;3.05;;;9.90;72.30;;;;;;4991551;28;20529;-65
2022/11/21 11:48:40;;;;;;;8.48;2.75;;;9.90;70.60;;;;;;4985839;28;20513;-62
2022/11/21 11:51:25;;;;;;;5.68;1.83;;;9.90;71.60;;;;;;4984374;28;20461;-60
2022/11/21 11:53:55;;;;;;;5.93;2.20;;;9.80;70.60;;;;;;4994102;28;20072;-59
2022/11/21 11:56:31;;;;;;;7.60;2.38;;;9.80;70.30;;;;;;4993012;28;20069;-61
2022/11/21 11:59:12;;;;;;;7.83;2.37;;;9.70;68.50;;;;;;4990431;28;20096;-57
2022/11/21 12:01:40;;;;;;;9.45;2.75;;;9.80;69.20;;;;;;4989594;28;20133;-55
2022/11/21 12:04:15;;;;;;;6.97;2.05;;;9.80;69.60;;;;;;4993065;28;20030;-57
2022/11/21 12:06:54;;;;;;;7.85;1.98;;;9.80;70.20;;;;;;4994336;28;20461;-57
2022/11/21 12:09:35;;;;;;;13.77;2.45;;;9.80;69.20;;;;;;4987590;28;20513;-56
2022/11/21 12:12:22;;;;;;;10.07;1.88;;;9.80;69.10;;;;;;4986181;28;20046;-52
2022/11/21 12:18:07;;;;;;;8.75;2.00;;;9.90;70.30;;;;;;4992746;28;20045;-58
2022/11/21 12:20:40;;;;;;;6.35;1.70;;;9.90;68.00;;;;;;4990581;28;20034;-55
2022/11/21 12:23:09;;;;;;;7.35;2.28;;;9.90;67.90;;;;;;4989234;28;20027;-53
2022/11/21 12:25:41;;;;;;;7.05;2.22;;;9.90;67.50;;;;;;4994810;28;20030;-53
2022/11/21 12:28:22;;;;;;;9.88;2.03;;;9.90;68.40;;;;;;4997386;28;20050;-53
2022/11/21 12:31:13;;;;;;;10.65;2.45;;;9.90;70.00;;;;;;4989330;28;20065;-52
2022/11/21 12:33:58;;;;;;;5.43;1.98;;;10.00;69.50;;;;;;4988657;28;20041;-59
2022/11/21 12:36:39;;;;;;;6.63;1.88;;;10.00;69.40;;;;;;4990561;28;20027;-55
2022/11/21 12:39:25;;;;;;;7.20;1.90;;;10.00;65.70;;;;;;4992789;28;20038;-56
2022/11/21 12:45:45;;;;;;;7.93;1.75;;;10.00;64.50;;;;;;4992848;28;20108;-61
2022/11/21 12:55:11;;;;;;;5.72;1.77;;;10.00;62.10;;;;;;4984930;28;20132;-56
2022/11/21 12:58:25;;;;;;;6.50;2.00;;;10.00;61.70;;;;;;4990083;28;20498;-61
2022/11/21 13:01:04;;;;;;;7.57;2.03;;;10.00;62.10;;;;;;4984198;28;20053;-61
2022/11/21 13:04:04;;;;;;;4.47;2.13;;;10.00;62.00;;;;;;4993977;28;20026;-57
2022/11/21 13:06:38;;;;;;;5.50;1.73;;;10.00;63.80;;;;;;4988862;28;20062;-59
2022/11/21 13:09:08;;;;;;;5.30;1.60;;;9.90;65.00;;;;;;4991795;28;20129;-59
2022/11/21 13:11:58;;;;;;;11.38;2.10;;;9.90;65.40;;;;;;4988493;28;20052;-61
2022/11/21 13:14:48;;;;;;;7.65;2.55;;;9.80;66.70;;;;;;4991251;28;20368;-57
2022/11/21 13:17:33;;;;;;;13.60;2.20;;;9.70;68.10;;;;;;4995720;28;20051;-61
2022/11/21 13:20:23;;;;;;;11.10;1.75;;;9.60;68.70;;;;;;4993803;28;20030;-62
2022/11/21 13:23:05;;;;;;;14.15;1.77;;;9.30;70.80;;;;;;4990967;28;20072;-64
2022/11/21 13:25:30;;;;;;;4.97;1.60;;;9.20;72.20;;;;;;4993092;28;20037;-55
2022/11/21 13:28:17;;;;;;;5.77;1.80;;;9.00;72.80;;;;;;4986661;28;20681;-57
2022/11/21 13:30:46;;;;;;;10.05;1.65;;;8.80;75.70;;;;;;4987249;28;20037;-55
2022/11/21 13:33:34;;;;;;;10.02;2.38;;;8.70;77.70;;;;;;4984774;28;20046;-60
2022/11/21 13:36:19;;;;;;;9.38;1.83;;;8.60;77.20;;;;;;4990106;28;20034;-58
2022/11/21 13:38:54;;;;;;;6.82;1.42;;;8.50;77.80;;;;;;4988553;28;20180;-54
2022/11/21 13:44:30;;;;;;;4.00;1.52;;;8.30;80.40;;;;;;4987417;28;20041;-54
2022/11/21 13:46:58;;;;;;;7.75;1.73;;;8.20;81.30;;;;;;4987157;28;20065;-54